sensor_id;sensor_type;location;lat;lon;timestamp;temperature;humidity
12254;DHT22;6189;52.526;13.390;2022-08-21T00:01:28;21.40;99.90
12254;DHT22;6189;52.526;13.390;2022-08-21T00:04:14;21.30;99.90
12254;DHT22;6189;52.526;13.390;2022-08-21T00:07:01;21.30;99.90
12254;DHT22;6189;52.526;13.390;2022-08-21T00:09:47;21.30;99.90
12254;DHT22;6189;52.526;13.390;2022-08-21T00:12:32;21.20;99.90
12254;DHT22;6189;52.526;13.390;2022-08-21T00:15:22;21.20;99.90
12254;DHT22;6189;52.526;13.390;2022-08-21T00:18:09;21.30;99.90
12254;DHT22;6189;52.526;13.390;2022-08-21T00:20:55;21.20;99.90
12254;DHT22;6189;52.526;13.390;2022-08-21T00:23:42;21.30;99.90
12254;DHT22;6189;52.526;13.390;2022-08-21T00:26:28;21.20;99.90
12254;DHT22;6189;52.526;13.390;2022-08-21T00:29:13;21.20;99.90
12254;DHT22;6189;52.526;13.390;2022-08-21T00:31:59;21.30;99.90
12254;DHT22;6189;52.526;13.390;2022-08-21T00:34:44;21.30;99.90
12254;DHT22;6189;52.526;13.390;2022-08-21T00:37:30;21.20;99.90
12254;DHT22;6189;52.526;13.390;2022-08-21T00:40:21;21.20;99.90
12254;DHT22;6189;52.526;13.390;2022-08-21T00:43:09;21.10;99.90
12254;DHT22;6189;52.526;13.390;2022-08-21T00:45:56;21.20;99.90
12254;DHT22;6189;52.526;13.390;2022-08-21T00:48:42;21.20;99.90
12254;DHT22;6189;52.526;13.390;2022-08-21T00:51:33;21.10;99.90
12254;DHT22;6189;52.526;13.390;2022-08-21T00:54:22;21.10;99.90
12254;DHT22;6189;52.526;13.390;2022-08-21T00:57:15;20.90;99.90
12254;DHT22;6189;52.526;13.390;2022-08-21T01:00:05;20.90;99.90
12254;DHT22;6189;52.526;13.390;2022-08-21T01:02:51;20.90;99.90
12254;DHT22;6189;52.526;13.390;2022-08-21T01:05:37;20.90;99.90
12254;DHT22;6189;52.526;13.390;2022-08-21T01:08:23;20.80;99.90
12254;DHT22;6189;52.526;13.390;2022-08-21T01:11:08;20.90;99.90
12254;DHT22;6189;52.526;13.390;2022-08-21T01:13:55;20.90;99.90
12254;DHT22;6189;52.526;13.390;2022-08-21T01:16:45;20.90;99.90
12254;DHT22;6189;52.526;13.390;2022-08-21T01:19:31;20.90;99.90
12254;DHT22;6189;52.526;13.390;2022-08-21T01:22:18;20.90;99.90
12254;DHT22;6189;52.526;13.390;2022-08-21T01:25:05;21.00;99.90
12254;DHT22;6189;52.526;13.390;2022-08-21T01:27:52;20.90;99.90
12254;DHT22;6189;52.526;13.390;2022-08-21T01:30:39;20.90;99.90
12254;DHT22;6189;52.526;13.390;2022-08-21T01:33:25;20.80;99.90
12254;DHT22;6189;52.526;13.390;2022-08-21T01:36:10;20.80;99.90
12254;DHT22;6189;52.526;13.390;2022-08-21T01:38:57;20.80;99.90
12254;DHT22;6189;52.526;13.390;2022-08-21T01:41:43;20.90;99.90
12254;DHT22;6189;52.526;13.390;2022-08-21T01:44:28;20.80;99.90
12254;DHT22;6189;52.526;13.390;2022-08-21T01:47:15;20.90;99.90
12254;DHT22;6189;52.526;13.390;2022-08-21T01:50:04;20.80;99.90
12254;DHT22;6189;52.526;13.390;2022-08-21T01:52:49;20.80;99.90
12254;DHT22;6189;52.526;13.390;2022-08-21T01:55:37;20.90;99.90
12254;DHT22;6189;52.526;13.390;2022-08-21T01:58:22;20.80;99.90
12254;DHT22;6189;52.526;13.390;2022-08-21T02:01:08;20.80;99.90
12254;DHT22;6189;52.526;13.390;2022-08-21T02:03:54;20.90;99.90
12254;DHT22;6189;52.526;13.390;2022-08-21T02:06:40;20.70;99.90
12254;DHT22;6189;52.526;13.390;2022-08-21T02:09:27;20.70;99.90
12254;DHT22;6189;52.526;13.390;2022-08-21T02:12:14;20.50;99.90
12254;DHT22;6189;52.526;13.390;2022-08-21T02:14:59;20.40;99.90
12254;DHT22;6189;52.526;13.390;2022-08-21T02:17:47;20.40;99.90
12254;DHT22;6189;52.526;13.390;2022-08-21T02:20:36;20.30;99.90
12254;DHT22;6189;52.526;13.390;2022-08-21T02:23:23;20.30;99.90
12254;DHT22;6189;52.526;13.390;2022-08-21T02:26:09;20.20;99.90
12254;DHT22;6189;52.526;13.390;2022-08-21T02:28:56;20.30;99.90
12254;DHT22;6189;52.526;13.390;2022-08-21T02:31:42;20.40;99.90
12254;DHT22;6189;52.526;13.390;2022-08-21T02:34:27;20.40;99.90
12254;DHT22;6189;52.526;13.390;2022-08-21T02:37:13;20.40;99.90
12254;DHT22;6189;52.526;13.390;2022-08-21T02:39:59;20.30;99.90
12254;DHT22;6189;52.526;13.390;2022-08-21T02:42:45;20.20;99.90
12254;DHT22;6189;52.526;13.390;2022-08-21T02:45:32;20.20;99.90
12254;DHT22;6189;52.526;13.390;2022-08-21T02:48:20;20.30;99.90
12254;DHT22;6189;52.526;13.390;2022-08-21T02:51:09;20.20;99.90
12254;DHT22;6189;52.526;13.390;2022-08-21T02:53:54;20.20;99.90
12254;DHT22;6189;52.526;13.390;2022-08-21T02:56:40;20.10;99.90
12254;DHT22;6189;52.526;13.390;2022-08-21T02:59:25;20.00;99.90
12254;DHT22;6189;52.526;13.390;2022-08-21T03:02:12;20.00;99.90
12254;DHT22;6189;52.526;13.390;2022-08-21T03:04:59;20.10;99.90
12254;DHT22;6189;52.526;13.390;2022-08-21T03:07:45;20.10;99.90
12254;DHT22;6189;52.526;13.390;2022-08-21T03:10:31;20.20;99.90
12254;DHT22;6189;52.526;13.390;2022-08-21T03:13:18;20.10;99.90
12254;DHT22;6189;52.526;13.390;2022-08-21T03:16:05;20.00;99.90
12254;DHT22;6189;52.526;13.390;2022-08-21T03:18:52;20.00;99.90
12254;DHT22;6189;52.526;13.390;2022-08-21T03:21:38;20.00;99.90
12254;DHT22;6189;52.526;13.390;2022-08-21T03:24:23;19.90;99.90
12254;DHT22;6189;52.526;13.390;2022-08-21T03:27:09;19.90;99.90
12254;DHT22;6189;52.526;13.390;2022-08-21T03:29:57;19.90;99.90
12254;DHT22;6189;52.526;13.390;2022-08-21T03:32:42;19.80;99.90
12254;DHT22;6189;52.526;13.390;2022-08-21T03:35:30;19.80;99.90
12254;DHT22;6189;52.526;13.390;2022-08-21T03:38:15;19.80;99.90
12254;DHT22;6189;52.526;13.390;2022-08-21T03:41:01;19.90;99.90
12254;DHT22;6189;52.526;13.390;2022-08-21T03:43:47;19.90;99.90
12254;DHT22;6189;52.526;13.390;2022-08-21T03:46:32;19.90;99.90
12254;DHT22;6189;52.526;13.390;2022-08-21T03:49:18;19.90;99.90
12254;DHT22;6189;52.526;13.390;2022-08-21T03:52:05;19.80;99.90
12254;DHT22;6189;52.526;13.390;2022-08-21T03:54:50;19.70;99.90
12254;DHT22;6189;52.526;13.390;2022-08-21T03:57:36;19.70;99.90
12254;DHT22;6189;52.526;13.390;2022-08-21T04:00:22;19.60;99.90
12254;DHT22;6189;52.526;13.390;2022-08-21T04:03:07;19.50;99.90
12254;DHT22;6189;52.526;13.390;2022-08-21T04:05:53;19.50;99.90
12254;DHT22;6189;52.526;13.390;2022-08-21T04:08:39;19.40;99.90
12254;DHT22;6189;52.526;13.390;2022-08-21T04:11:27;19.40;99.90
12254;DHT22;6189;52.526;13.390;2022-08-21T04:14:13;19.50;99.90
12254;DHT22;6189;52.526;13.390;2022-08-21T04:16:58;19.50;99.90
12254;DHT22;6189;52.526;13.390;2022-08-21T04:19:43;19.50;99.90
12254;DHT22;6189;52.526;13.390;2022-08-21T04:26:12;19.40;99.90
12254;DHT22;6189;52.526;13.390;2022-08-21T04:28:57;19.50;99.90
12254;DHT22;6189;52.526;13.390;2022-08-21T04:31:43;19.50;99.90
12254;DHT22;6189;52.526;13.390;2022-08-21T04:34:28;19.60;99.90
12254;DHT22;6189;52.526;13.390;2022-08-21T04:37:14;19.60;99.90
12254;DHT22;6189;52.526;13.390;2022-08-21T04:40:00;19.60;99.90
12254;DHT22;6189;52.526;13.390;2022-08-21T04:42:48;19.40;99.90
12254;DHT22;6189;52.526;13.390;2022-08-21T04:45:37;19.40;99.90
12254;DHT22;6189;52.526;13.390;2022-08-21T04:48:23;19.40;99.90
12254;DHT22;6189;52.526;13.390;2022-08-21T04:51:11;19.40;99.90
12254;DHT22;6189;52.526;13.390;2022-08-21T04:54:00;19.50;99.90
12254;DHT22;6189;52.526;13.390;2022-08-21T04:56:49;19.50;99.90
12254;DHT22;6189;52.526;13.390;2022-08-21T04:59:41;19.40;99.90
12254;DHT22;6189;52.526;13.390;2022-08-21T05:02:27;19.30;99.90
12254;DHT22;6189;52.526;13.390;2022-08-21T05:05:13;19.30;99.90
12254;DHT22;6189;52.526;13.390;2022-08-21T05:08:01;19.50;99.90
12254;DHT22;6189;52.526;13.390;2022-08-21T05:10:47;19.50;99.90
12254;DHT22;6189;52.526;13.390;2022-08-21T05:13:32;19.30;99.90
12254;DHT22;6189;52.526;13.390;2022-08-21T05:16:20;19.40;99.90
12254;DHT22;6189;52.526;13.390;2022-08-21T05:19:06;19.20;99.90
12254;DHT22;6189;52.526;13.390;2022-08-21T05:21:52;19.20;99.90
12254;DHT22;6189;52.526;13.390;2022-08-21T05:24:37;19.30;99.90
12254;DHT22;6189;52.526;13.390;2022-08-21T05:27:23;19.20;99.90
12254;DHT22;6189;52.526;13.390;2022-08-21T05:30:09;19.30;99.90
12254;DHT22;6189;52.526;13.390;2022-08-21T05:32:58;19.30;99.90
12254;DHT22;6189;52.526;13.390;2022-08-21T05:35:44;19.40;99.90
12254;DHT22;6189;52.526;13.390;2022-08-21T05:38:29;19.40;99.90
12254;DHT22;6189;52.526;13.390;2022-08-21T05:41:15;19.40;99.90
12254;DHT22;6189;52.526;13.390;2022-08-21T05:44:00;19.40;99.90
12254;DHT22;6189;52.526;13.390;2022-08-21T05:46:46;19.40;99.90
12254;DHT22;6189;52.526;13.390;2022-08-21T05:49:33;19.50;99.90
12254;DHT22;6189;52.526;13.390;2022-08-21T05:52:20;19.50;99.90
12254;DHT22;6189;52.526;13.390;2022-08-21T05:55:06;19.50;99.90
12254;DHT22;6189;52.526;13.390;2022-08-21T05:57:52;19.60;99.90
12254;DHT22;6189;52.526;13.390;2022-08-21T06:00:37;19.40;99.90
12254;DHT22;6189;52.526;13.390;2022-08-21T06:03:24;19.40;99.90
12254;DHT22;6189;52.526;13.390;2022-08-21T06:06:11;19.50;99.90
12254;DHT22;6189;52.526;13.390;2022-08-21T06:08:56;19.50;99.90
12254;DHT22;6189;52.526;13.390;2022-08-21T06:11:42;19.50;99.90
12254;DHT22;6189;52.526;13.390;2022-08-21T06:14:27;19.40;99.90
12254;DHT22;6189;52.526;13.390;2022-08-21T06:17:13;19.40;99.90
12254;DHT22;6189;52.526;13.390;2022-08-21T06:19:59;19.40;99.90
12254;DHT22;6189;52.526;13.390;2022-08-21T06:22:46;19.40;99.90
12254;DHT22;6189;52.526;13.390;2022-08-21T06:25:32;19.50;99.90
12254;DHT22;6189;52.526;13.390;2022-08-21T06:28:17;19.60;99.90
12254;DHT22;6189;52.526;13.390;2022-08-21T06:31:11;19.70;99.90
12254;DHT22;6189;52.526;13.390;2022-08-21T06:33:56;19.60;99.90
12254;DHT22;6189;52.526;13.390;2022-08-21T06:36:42;19.60;99.90
12254;DHT22;6189;52.526;13.390;2022-08-21T06:39:29;19.50;99.90
12254;DHT22;6189;52.526;13.390;2022-08-21T06:42:16;19.60;99.90
12254;DHT22;6189;52.526;13.390;2022-08-21T06:45:02;19.70;99.90
12254;DHT22;6189;52.526;13.390;2022-08-21T06:47:47;19.80;99.90
12254;DHT22;6189;52.526;13.390;2022-08-21T06:50:33;19.90;99.90
12254;DHT22;6189;52.526;13.390;2022-08-21T06:53:20;19.90;99.90
12254;DHT22;6189;52.526;13.390;2022-08-21T06:56:07;19.90;99.90
12254;DHT22;6189;52.526;13.390;2022-08-21T06:58:53;19.90;99.90
12254;DHT22;6189;52.526;13.390;2022-08-21T07:01:38;19.90;99.90
12254;DHT22;6189;52.526;13.390;2022-08-21T07:04:24;19.90;99.90
12254;DHT22;6189;52.526;13.390;2022-08-21T07:07:10;20.00;99.90
12254;DHT22;6189;52.526;13.390;2022-08-21T07:09:55;19.90;99.90
12254;DHT22;6189;52.526;13.390;2022-08-21T07:12:42;19.90;99.90
12254;DHT22;6189;52.526;13.390;2022-08-21T07:15:28;20.00;99.90
12254;DHT22;6189;52.526;13.390;2022-08-21T07:18:14;19.90;99.90
12254;DHT22;6189;52.526;13.390;2022-08-21T07:21:01;19.90;99.90
12254;DHT22;6189;52.526;13.390;2022-08-21T07:23:49;19.90;99.90
12254;DHT22;6189;52.526;13.390;2022-08-21T07:26:34;19.80;99.90
12254;DHT22;6189;52.526;13.390;2022-08-21T07:29:22;19.80;99.90
12254;DHT22;6189;52.526;13.390;2022-08-21T07:32:07;19.80;99.90
12254;DHT22;6189;52.526;13.390;2022-08-21T07:34:53;19.90;99.90
12254;DHT22;6189;52.526;13.390;2022-08-21T07:37:38;20.00;99.90
12254;DHT22;6189;52.526;13.390;2022-08-21T07:40:24;20.10;99.90
12254;DHT22;6189;52.526;13.390;2022-08-21T07:43:09;20.10;99.90
12254;DHT22;6189;52.526;13.390;2022-08-21T07:45:57;20.20;99.90
12254;DHT22;6189;52.526;13.390;2022-08-21T07:48:42;20.30;99.90
12254;DHT22;6189;52.526;13.390;2022-08-21T07:51:28;20.30;99.90
12254;DHT22;6189;52.526;13.390;2022-08-21T07:54:14;20.40;99.90
12254;DHT22;6189;52.526;13.390;2022-08-21T07:56:59;20.40;99.90
12254;DHT22;6189;52.526;13.390;2022-08-21T07:59:45;20.30;99.90
12254;DHT22;6189;52.526;13.390;2022-08-21T08:02:32;20.50;99.90
12254;DHT22;6189;52.526;13.390;2022-08-21T08:05:19;20.60;99.90
12254;DHT22;6189;52.526;13.390;2022-08-21T08:08:05;20.60;99.90
12254;DHT22;6189;52.526;13.390;2022-08-21T08:10:51;20.70;99.90
12254;DHT22;6189;52.526;13.390;2022-08-21T08:13:42;20.70;99.90
12254;DHT22;6189;52.526;13.390;2022-08-21T08:16:28;20.80;99.90
12254;DHT22;6189;52.526;13.390;2022-08-21T08:19:15;20.70;99.90
12254;DHT22;6189;52.526;13.390;2022-08-21T08:22:00;20.80;99.90
12254;DHT22;6189;52.526;13.390;2022-08-21T08:24:47;20.80;99.90
12254;DHT22;6189;52.526;13.390;2022-08-21T08:27:32;20.80;99.90
12254;DHT22;6189;52.526;13.390;2022-08-21T08:30:19;20.90;99.90
12254;DHT22;6189;52.526;13.390;2022-08-21T08:33:05;21.00;99.90
12254;DHT22;6189;52.526;13.390;2022-08-21T08:35:52;21.00;99.90
12254;DHT22;6189;52.526;13.390;2022-08-21T08:38:37;21.10;99.90
12254;DHT22;6189;52.526;13.390;2022-08-21T08:41:23;21.20;99.90
12254;DHT22;6189;52.526;13.390;2022-08-21T08:44:09;21.30;99.90
12254;DHT22;6189;52.526;13.390;2022-08-21T08:46:56;21.30;99.90
12254;DHT22;6189;52.526;13.390;2022-08-21T08:49:50;21.30;99.90
12254;DHT22;6189;52.526;13.390;2022-08-21T08:52:45;21.40;99.90
12254;DHT22;6189;52.526;13.390;2022-08-21T08:55:35;21.30;99.90
12254;DHT22;6189;52.526;13.390;2022-08-21T08:58:24;21.20;99.90
12254;DHT22;6189;52.526;13.390;2022-08-21T09:01:15;21.30;99.90
12254;DHT22;6189;52.526;13.390;2022-08-21T09:04:01;21.40;99.90
12254;DHT22;6189;52.526;13.390;2022-08-21T09:07:00;21.40;99.90
12254;DHT22;6189;52.526;13.390;2022-08-21T09:10:02;21.50;99.90
12254;DHT22;6189;52.526;13.390;2022-08-21T09:12:55;21.50;99.90
12254;DHT22;6189;52.526;13.390;2022-08-21T09:15:49;21.60;99.90
12254;DHT22;6189;52.526;13.390;2022-08-21T09:18:44;21.60;99.90
12254;DHT22;6189;52.526;13.390;2022-08-21T09:21:38;21.60;99.90
12254;DHT22;6189;52.526;13.390;2022-08-21T09:24:31;21.60;99.90
12254;DHT22;6189;52.526;13.390;2022-08-21T09:27:19;21.60;99.90
12254;DHT22;6189;52.526;13.390;2022-08-21T09:30:07;21.60;99.90
12254;DHT22;6189;52.526;13.390;2022-08-21T09:32:54;21.60;99.90
12254;DHT22;6189;52.526;13.390;2022-08-21T09:35:50;21.70;99.90
12254;DHT22;6189;52.526;13.390;2022-08-21T09:38:37;21.70;99.90
12254;DHT22;6189;52.526;13.390;2022-08-21T09:41:27;21.70;99.90
12254;DHT22;6189;52.526;13.390;2022-08-21T09:44:26;21.70;99.90
12254;DHT22;6189;52.526;13.390;2022-08-21T09:47:12;21.80;99.90
12254;DHT22;6189;52.526;13.390;2022-08-21T09:50:07;21.80;99.90
12254;DHT22;6189;52.526;13.390;2022-08-21T09:52:56;21.80;99.90
12254;DHT22;6189;52.526;13.390;2022-08-21T09:55:48;21.90;99.90
12254;DHT22;6189;52.526;13.390;2022-08-21T09:58:52;21.90;99.90
12254;DHT22;6189;52.526;13.390;2022-08-21T10:01:45;22.10;99.90
12254;DHT22;6189;52.526;13.390;2022-08-21T10:04:32;22.20;99.90
12254;DHT22;6189;52.526;13.390;2022-08-21T10:07:21;22.20;99.90
12254;DHT22;6189;52.526;13.390;2022-08-21T10:10:13;22.30;99.90
12254;DHT22;6189;52.526;13.390;2022-08-21T10:13:01;22.30;99.90
12254;DHT22;6189;52.526;13.390;2022-08-21T10:15:56;22.40;99.90
12254;DHT22;6189;52.526;13.390;2022-08-21T10:18:56;22.40;99.90
12254;DHT22;6189;52.526;13.390;2022-08-21T10:21:58;22.40;99.90
12254;DHT22;6189;52.526;13.390;2022-08-21T10:24:51;22.40;99.90
12254;DHT22;6189;52.526;13.390;2022-08-21T10:27:44;22.50;99.90
12254;DHT22;6189;52.526;13.390;2022-08-21T10:30:38;22.60;99.90
12254;DHT22;6189;52.526;13.390;2022-08-21T10:33:37;22.60;99.90
12254;DHT22;6189;52.526;13.390;2022-08-21T10:36:33;22.70;99.90
12254;DHT22;6189;52.526;13.390;2022-08-21T10:39:25;22.70;99.90
12254;DHT22;6189;52.526;13.390;2022-08-21T10:42:22;23.00;99.90
12254;DHT22;6189;52.526;13.390;2022-08-21T10:45:15;23.10;99.90
12254;DHT22;6189;52.526;13.390;2022-08-21T10:48:07;23.30;99.90
12254;DHT22;6189;52.526;13.390;2022-08-21T10:51:04;23.40;99.90
12254;DHT22;6189;52.526;13.390;2022-08-21T10:53:59;23.60;99.90
12254;DHT22;6189;52.526;13.390;2022-08-21T10:56:50;23.50;98.30
12254;DHT22;6189;52.526;13.390;2022-08-21T10:59:41;23.60;99.00
12254;DHT22;6189;52.526;13.390;2022-08-21T11:02:33;23.50;98.30
12254;DHT22;6189;52.526;13.390;2022-08-21T11:05:27;23.50;98.10
12254;DHT22;6189;52.526;13.390;2022-08-21T11:08:18;23.60;98.90
12254;DHT22;6189;52.526;13.390;2022-08-21T11:11:10;23.60;96.40
12254;DHT22;6189;52.526;13.390;2022-08-21T11:14:00;23.90;99.10
12254;DHT22;6189;52.526;13.390;2022-08-21T11:16:51;24.30;96.90
12254;DHT22;6189;52.526;13.390;2022-08-21T11:19:43;24.30;93.40
12254;DHT22;6189;52.526;13.390;2022-08-21T11:22:35;24.50;94.40
12254;DHT22;6189;52.526;13.390;2022-08-21T11:25:27;24.90;94.40
12254;DHT22;6189;52.526;13.390;2022-08-21T11:28:20;25.30;93.40
12254;DHT22;6189;52.526;13.390;2022-08-21T11:31:18;25.60;85.40
12254;DHT22;6189;52.526;13.390;2022-08-21T11:34:15;26.10;87.50
12254;DHT22;6189;52.526;13.390;2022-08-21T11:37:10;26.20;85.20
12254;DHT22;6189;52.526;13.390;2022-08-21T11:40:15;26.50;82.60
12254;DHT22;6189;52.526;13.390;2022-08-21T11:43:10;26.90;84.10
12254;DHT22;6189;52.526;13.390;2022-08-21T11:46:03;26.90;75.30
12254;DHT22;6189;52.526;13.390;2022-08-21T11:49:16;26.60;74.80
12254;DHT22;6189;52.526;13.390;2022-08-21T11:52:10;26.40;69.60
12254;DHT22;6189;52.526;13.390;2022-08-21T11:55:03;26.10;70.20
12254;DHT22;6189;52.526;13.390;2022-08-21T11:57:55;25.90;70.00
12254;DHT22;6189;52.526;13.390;2022-08-21T12:00:44;25.80;70.20
12254;DHT22;6189;52.526;13.390;2022-08-21T12:03:34;25.90;71.60
12254;DHT22;6189;52.526;13.390;2022-08-21T12:06:29;26.00;70.80
12254;DHT22;6189;52.526;13.390;2022-08-21T12:09:30;25.70;68.10
12254;DHT22;6189;52.526;13.390;2022-08-21T12:12:24;25.70;70.90
12254;DHT22;6189;52.526;13.390;2022-08-21T12:15:17;26.10;72.30
12254;DHT22;6189;52.526;13.390;2022-08-21T12:18:05;26.20;67.10
12254;DHT22;6189;52.526;13.390;2022-08-21T12:21:02;26.50;73.00
12254;DHT22;6189;52.526;13.390;2022-08-21T12:24:01;26.80;66.60
12254;DHT22;6189;52.526;13.390;2022-08-21T12:26:52;27.00;65.70
12254;DHT22;6189;52.526;13.390;2022-08-21T12:29:38;26.90;61.30
12254;DHT22;6189;52.526;13.390;2022-08-21T12:32:43;27.00;65.60
12254;DHT22;6189;52.526;13.390;2022-08-21T12:35:33;27.30;69.70
12254;DHT22;6189;52.526;13.390;2022-08-21T12:38:26;27.30;59.10
12254;DHT22;6189;52.526;13.390;2022-08-21T12:41:18;27.30;62.10
12254;DHT22;6189;52.526;13.390;2022-08-21T12:44:08;27.30;61.30
12254;DHT22;6189;52.526;13.390;2022-08-21T12:46:57;27.50;63.50
12254;DHT22;6189;52.526;13.390;2022-08-21T12:49:52;27.20;58.00
12254;DHT22;6189;52.526;13.390;2022-08-21T12:52:45;27.00;58.70
12254;DHT22;6189;52.526;13.390;2022-08-21T12:55:35;26.90;59.40
12254;DHT22;6189;52.526;13.390;2022-08-21T12:58:25;27.40;61.30
12254;DHT22;6189;52.526;13.390;2022-08-21T13:01:19;27.60;61.10
12254;DHT22;6189;52.526;13.390;2022-08-21T13:04:09;27.90;62.00
12254;DHT22;6189;52.526;13.390;2022-08-21T13:06:58;28.10;62.00
12254;DHT22;6189;52.526;13.390;2022-08-21T13:09:47;28.10;59.50
12254;DHT22;6189;52.526;13.390;2022-08-21T13:12:35;28.00;59.50
12254;DHT22;6189;52.526;13.390;2022-08-21T13:15:26;28.00;59.10
12254;DHT22;6189;52.526;13.390;2022-08-21T13:18:20;28.10;58.60
12254;DHT22;6189;52.526;13.390;2022-08-21T13:21:11;27.80;58.80
12254;DHT22;6189;52.526;13.390;2022-08-21T13:24:11;27.50;59.50
12254;DHT22;6189;52.526;13.390;2022-08-21T13:26:57;27.50;60.60
12254;DHT22;6189;52.526;13.390;2022-08-21T13:29:44;27.30;60.90
12254;DHT22;6189;52.526;13.390;2022-08-21T13:32:34;27.20;62.50
12254;DHT22;6189;52.526;13.390;2022-08-21T13:35:25;27.20;63.20
12254;DHT22;6189;52.526;13.390;2022-08-21T13:38:11;26.80;62.70
12254;DHT22;6189;52.526;13.390;2022-08-21T13:40:59;26.50;62.40
12254;DHT22;6189;52.526;13.390;2022-08-21T13:43:50;26.50;65.00
12254;DHT22;6189;52.526;13.390;2022-08-21T13:46:37;26.60;64.60
12254;DHT22;6189;52.526;13.390;2022-08-21T13:49:34;26.70;67.70
12254;DHT22;6189;52.526;13.390;2022-08-21T13:52:21;26.70;66.70
12254;DHT22;6189;52.526;13.390;2022-08-21T13:55:11;26.70;68.30
12254;DHT22;6189;52.526;13.390;2022-08-21T13:58:01;26.70;65.10
12254;DHT22;6189;52.526;13.390;2022-08-21T14:00:49;26.70;69.10
12254;DHT22;6189;52.526;13.390;2022-08-21T14:03:41;26.50;65.40
12254;DHT22;6189;52.526;13.390;2022-08-21T14:06:32;26.60;70.10
12254;DHT22;6189;52.526;13.390;2022-08-21T14:09:25;26.50;67.00
12254;DHT22;6189;52.526;13.390;2022-08-21T14:12:14;26.40;70.10
12254;DHT22;6189;52.526;13.390;2022-08-21T14:15:03;26.30;67.70
12254;DHT22;6189;52.526;13.390;2022-08-21T14:17:51;26.10;67.10
12254;DHT22;6189;52.526;13.390;2022-08-21T14:20:37;26.10;70.60
12254;DHT22;6189;52.526;13.390;2022-08-21T14:23:24;26.20;67.20
12254;DHT22;6189;52.526;13.390;2022-08-21T14:26:10;26.20;68.90
12254;DHT22;6189;52.526;13.390;2022-08-21T14:28:59;26.20;71.40
12254;DHT22;6189;52.526;13.390;2022-08-21T14:31:51;26.20;69.10
12254;DHT22;6189;52.526;13.390;2022-08-21T14:34:36;26.10;67.00
12254;DHT22;6189;52.526;13.390;2022-08-21T14:37:24;26.00;69.40
12254;DHT22;6189;52.526;13.390;2022-08-21T14:40:10;26.00;67.50
12254;DHT22;6189;52.526;13.390;2022-08-21T14:42:56;25.90;68.60
12254;DHT22;6189;52.526;13.390;2022-08-21T14:45:42;25.90;70.00
12254;DHT22;6189;52.526;13.390;2022-08-21T14:48:27;25.80;72.10
12254;DHT22;6189;52.526;13.390;2022-08-21T14:51:13;25.80;73.10
12254;DHT22;6189;52.526;13.390;2022-08-21T14:54:00;25.80;72.30
12254;DHT22;6189;52.526;13.390;2022-08-21T14:56:45;25.70;71.60
12254;DHT22;6189;52.526;13.390;2022-08-21T14:59:31;25.70;71.40
12254;DHT22;6189;52.526;13.390;2022-08-21T15:02:17;25.60;73.70
12254;DHT22;6189;52.526;13.390;2022-08-21T15:05:04;25.50;75.50
12254;DHT22;6189;52.526;13.390;2022-08-21T15:07:50;25.50;75.20
12254;DHT22;6189;52.526;13.390;2022-08-21T15:10:37;25.40;72.80
12254;DHT22;6189;52.526;13.390;2022-08-21T15:13:22;25.10;73.30
12254;DHT22;6189;52.526;13.390;2022-08-21T15:16:09;25.10;77.40
12254;DHT22;6189;52.526;13.390;2022-08-21T15:18:55;25.10;75.90
12254;DHT22;6189;52.526;13.390;2022-08-21T15:21:41;25.00;73.70
12254;DHT22;6189;52.526;13.390;2022-08-21T15:24:26;25.00;75.40
12254;DHT22;6189;52.526;13.390;2022-08-21T15:27:16;25.00;77.90
12254;DHT22;6189;52.526;13.390;2022-08-21T15:30:03;25.00;75.30
12254;DHT22;6189;52.526;13.390;2022-08-21T15:32:48;24.90;74.70
12254;DHT22;6189;52.526;13.390;2022-08-21T15:35:35;24.90;77.90
12254;DHT22;6189;52.526;13.390;2022-08-21T15:38:20;24.90;80.00
12254;DHT22;6189;52.526;13.390;2022-08-21T15:41:06;24.90;75.70
12254;DHT22;6189;52.526;13.390;2022-08-21T15:43:53;24.80;77.50
12254;DHT22;6189;52.526;13.390;2022-08-21T15:46:39;24.90;80.30
12254;DHT22;6189;52.526;13.390;2022-08-21T15:49:25;24.90;80.00
12254;DHT22;6189;52.526;13.390;2022-08-21T15:52:10;24.90;77.80
12254;DHT22;6189;52.526;13.390;2022-08-21T15:54:56;24.80;79.80
12254;DHT22;6189;52.526;13.390;2022-08-21T15:57:44;24.80;78.70
12254;DHT22;6189;52.526;13.390;2022-08-21T16:00:34;24.70;78.70
12254;DHT22;6189;52.526;13.390;2022-08-21T16:03:20;24.80;81.90
12254;DHT22;6189;52.526;13.390;2022-08-21T16:06:06;24.70;80.20
12254;DHT22;6189;52.526;13.390;2022-08-21T16:08:51;24.60;81.30
12254;DHT22;6189;52.526;13.390;2022-08-21T16:11:38;24.60;77.20
12254;DHT22;6189;52.526;13.390;2022-08-21T16:14:24;24.60;77.20
12254;DHT22;6189;52.526;13.390;2022-08-21T16:17:11;24.60;80.10
12254;DHT22;6189;52.526;13.390;2022-08-21T16:19:58;24.60;80.70
12254;DHT22;6189;52.526;13.390;2022-08-21T16:22:45;24.60;80.40
12254;DHT22;6189;52.526;13.390;2022-08-21T16:25:30;24.60;80.00
12254;DHT22;6189;52.526;13.390;2022-08-21T16:28:20;24.60;78.70
12254;DHT22;6189;52.526;13.390;2022-08-21T16:31:11;24.70;80.20
12254;DHT22;6189;52.526;13.390;2022-08-21T16:33:59;24.60;79.70
12254;DHT22;6189;52.526;13.390;2022-08-21T16:36:46;24.50;78.80
12254;DHT22;6189;52.526;13.390;2022-08-21T16:39:31;24.50;78.60
12254;DHT22;6189;52.526;13.390;2022-08-21T16:42:21;24.50;77.50
12254;DHT22;6189;52.526;13.390;2022-08-21T16:45:08;24.40;79.20
12254;DHT22;6189;52.526;13.390;2022-08-21T16:47:54;24.40;80.70
12254;DHT22;6189;52.526;13.390;2022-08-21T16:50:41;24.40;79.10
12254;DHT22;6189;52.526;13.390;2022-08-21T16:53:27;24.30;79.20
12254;DHT22;6189;52.526;13.390;2022-08-21T16:56:14;24.30;81.00
12254;DHT22;6189;52.526;13.390;2022-08-21T16:59:00;24.40;80.90
12254;DHT22;6189;52.526;13.390;2022-08-21T17:01:45;24.30;81.90
12254;DHT22;6189;52.526;13.390;2022-08-21T17:04:30;24.30;83.40
12254;DHT22;6189;52.526;13.390;2022-08-21T17:07:18;24.30;82.90
12254;DHT22;6189;52.526;13.390;2022-08-21T17:10:04;24.30;83.10
12254;DHT22;6189;52.526;13.390;2022-08-21T17:12:54;24.30;82.40
12254;DHT22;6189;52.526;13.390;2022-08-21T17:15:41;24.20;83.30
12254;DHT22;6189;52.526;13.390;2022-08-21T17:18:26;24.20;82.90
12254;DHT22;6189;52.526;13.390;2022-08-21T17:21:12;24.20;83.80
12254;DHT22;6189;52.526;13.390;2022-08-21T17:23:59;24.20;81.50
12254;DHT22;6189;52.526;13.390;2022-08-21T17:26:44;24.20;83.40
12254;DHT22;6189;52.526;13.390;2022-08-21T17:29:33;24.10;84.00
12254;DHT22;6189;52.526;13.390;2022-08-21T17:32:19;24.10;83.80
12254;DHT22;6189;52.526;13.390;2022-08-21T17:35:05;24.10;83.00
12254;DHT22;6189;52.526;13.390;2022-08-21T17:37:51;24.10;84.50
12254;DHT22;6189;52.526;13.390;2022-08-21T17:40:39;24.10;84.00
12254;DHT22;6189;52.526;13.390;2022-08-21T17:43:24;24.10;84.40
12254;DHT22;6189;52.526;13.390;2022-08-21T17:46:11;24.10;85.50